Time;durP1;ratioP1;P1;durP2;ratioP2;P2;SDS_P1;SDS_P2;PMS_P1;PMS_P2;Temp;Humidity;BMP_temperature;BMP_pressure;BME280_temperature;BME280_humidity;BME280_pressure;Samples;Min_cycle;Max_cycle;Signal;HPM_P1;HPM_P2
2023/10/16 00:01:46;;;;;;;5.13;2.37;;;;;7.20;97265.00;;;;5033414;28;20197;-65
2023/10/16 00:04:35;;;;;;;5.43;2.63;;;;;7.30;97263.00;;;;5034498;28;20219;-65
2023/10/16 00:07:27;;;;;;;4.30;2.13;;;;;7.00;97263.00;;;;5040957;28;20197;-65
2023/10/16 00:10:19;;;;;;;6.83;3.07;;;;;7.10;97264.00;;;;5041026;28;20201;-65
2023/10/16 00:13:11;;;;;;;3.80;1.97;;;;;6.80;97257.00;;;;5029939;28;20194;-64
2023/10/16 00:16:03;;;;;;;6.70;3.33;;;;;7.20;97260.00;;;;5028911;28;20229;-65
2023/10/16 00:18:53;;;;;;;7.67;3.47;;;;;7.10;97261.00;;;;5034797;28;20205;-65
2023/10/16 00:21:45;;;;;;;4.50;2.27;;;;;6.70;97262.00;;;;5042191;28;20309;-65
2023/10/16 00:24:34;;;;;;;4.43;2.17;;;;;7.00;97270.00;;;;5042778;28;20220;-65
2023/10/16 00:27:24;;;;;;;3.67;1.90;;;;;6.90;97263.00;;;;5038185;28;20205;-65
2023/10/16 00:30:14;;;;;;;7.17;3.10;;;;;6.70;97264.00;;;;5030548;28;20204;-65
2023/10/16 00:33:04;;;;;;;6.33;3.27;;;;;6.60;97256.00;;;;5035217;28;20216;-64
2023/10/16 00:35:53;;;;;;;7.13;3.30;;;;;6.50;97259.00;;;;5039771;28;20589;-65
2023/10/16 00:38:48;;;;;;;4.80;2.43;;;;;6.60;97256.00;;;;5033191;28;20201;-65
2023/10/16 00:41:37;;;;;;;4.13;2.20;;;;;6.70;97247.00;;;;5037074;28;20203;-65
2023/10/16 00:44:33;;;;;;;4.07;1.97;;;;;6.40;97252.00;;;;5030287;28;20211;-65
2023/10/16 00:47:22;;;;;;;5.30;2.67;;;;;5.80;97240.00;;;;5031617;28;20701;-66
2023/10/16 00:50:12;;;;;;;4.50;2.27;;;;;5.60;97242.00;;;;5038207;28;20204;-64
2023/10/16 00:53:01;;;;;;;6.07;3.10;;;;;6.10;97257.00;;;;5029018;28;20758;-65
2023/10/16 00:55:50;;;;;;;8.73;4.07;;;;;6.00;97254.00;;;;5022170;28;20479;-65
2023/10/16 00:58:40;;;;;;;4.60;2.13;;;;;6.00;97252.00;;;;5024327;28;20212;-65
2023/10/16 01:01:31;;;;;;;3.60;1.83;;;;;6.30;97253.00;;;;5027289;28;20209;-65
2023/10/16 01:04:20;;;;;;;4.57;2.33;;;;;6.50;97256.00;;;;5030542;28;20212;-64
2023/10/16 01:07:09;;;;;;;4.40;2.20;;;;;6.20;97247.00;;;;5034301;28;20193;-65
2023/10/16 01:09:59;;;;;;;8.53;4.00;;;;;5.80;97248.00;;;;5033347;28;20205;-65
2023/10/16 01:12:55;;;;;;;6.43;3.10;;;;;5.70;97259.00;;;;5028949;28;20433;-65
2023/10/16 01:15:47;;;;;;;5.97;2.70;;;;;5.50;97242.00;;;;5024615;28;20452;-65
2023/10/16 01:18:38;;;;;;;5.30;2.60;;;;;5.40;97234.00;;;;5034822;28;20295;-64
2023/10/16 01:21:27;;;;;;;4.07;2.10;;;;;5.40;97244.00;;;;5036276;28;20395;-65
2023/10/16 01:24:19;;;;;;;4.20;2.07;;;;;5.30;97252.00;;;;5024929;28;20440;-64
2023/10/16 01:27:14;;;;;;;3.10;1.70;;;;;5.20;97257.00;;;;5039606;28;20412;-64
2023/10/16 01:30:05;;;;;;;6.67;3.37;;;;;5.20;97255.00;;;;5042191;28;20465;-65
2023/10/16 01:32:54;;;;;;;6.47;3.17;;;;;4.90;97254.00;;;;5031493;28;20425;-65
2023/10/16 01:35:43;;;;;;;3.93;2.03;;;;;5.30;97262.00;;;;5039728;28;20463;-65
2023/10/16 01:38:32;;;;;;;5.83;2.93;;;;;5.30;97253.00;;;;5033423;28;20431;-64
2023/10/16 01:41:23;;;;;;;3.80;1.97;;;;;5.90;97265.00;;;;5034107;28;20514;-65
2023/10/16 01:44:12;;;;;;;4.30;2.13;;;;;5.90;97266.00;;;;5034198;28;21163;-64
2023/10/16 01:47:03;;;;;;;7.57;3.63;;;;;6.10;97273.00;;;;5027476;28;20421;-65
2023/10/16 01:49:54;;;;;;;8.03;3.73;;;;;6.10;97272.00;;;;5027975;28;20589;-65
2023/10/16 01:52:43;;;;;;;4.63;2.33;;;;;5.60;97261.00;;;;5040876;28;20208;-65
2023/10/16 01:55:32;;;;;;;5.17;2.53;;;;;5.10;97256.00;;;;5036176;28;20714;-65
2023/10/16 01:58:23;;;;;;;3.40;1.70;;;;;4.80;97238.00;;;;5033627;28;20426;-66
2023/10/16 02:01:13;;;;;;;2.60;1.47;;;;;4.80;97255.00;;;;5024955;28;20439;-65
2023/10/16 02:04:06;;;;;;;4.20;2.33;;;;;5.00;97259.00;;;;5030819;28;20801;-65
2023/10/16 02:06:55;;;;;;;7.33;3.53;;;;;5.10;97269.00;;;;5036175;28;20420;-65
2023/10/16 02:09:45;;;;;;;4.70;2.20;;;;;5.20;97265.00;;;;5027859;28;20428;-65
2023/10/16 02:12:34;;;;;;;5.50;2.43;;;;;5.30;97266.00;;;;5031237;28;20461;-65
2023/10/16 02:15:25;;;;;;;6.20;2.83;;;;;5.50;97263.00;;;;5026576;28;20451;-65
2023/10/16 02:18:22;;;;;;;5.53;2.60;;;;;5.60;97255.00;;;;5026803;28;20988;-65
2023/10/16 02:21:12;;;;;;;3.33;1.67;;;;;5.40;97260.00;;;;5029275;28;20999;-65
2023/10/16 02:24:03;;;;;;;7.23;3.43;;;;;5.20;97256.00;;;;5034190;28;20435;-65
2023/10/16 02:26:56;;;;;;;10.23;4.10;;;;;5.00;97252.00;;;;5060975;22;20491;-69
2023/10/16 02:29:47;;;;;;;6.20;2.70;;;;;5.10;97264.00;;;;5041001;28;20423;-69
2023/10/16 02:32:38;;;;;;;5.40;2.27;;;;;5.30;97278.00;;;;5043616;28;20462;-71
2023/10/16 02:35:27;;;;;;;6.63;2.93;;;;;5.50;97280.00;;;;5035066;28;20455;-71
2023/10/16 02:38:23;;;;;;;6.90;2.87;;;;;5.60;97287.00;;;;5028768;28;20468;-70
2023/10/16 02:41:14;;;;;;;6.67;2.70;;;;;5.70;97274.00;;;;5025378;28;20466;-70
2023/10/16 02:44:05;;;;;;;7.10;3.03;;;;;5.70;97275.00;;;;5033046;28;20427;-70
2023/10/16 02:46:56;;;;;;;11.20;4.37;;;;;5.80;97274.00;;;;5029516;28;20820;-70
2023/10/16 02:49:48;;;;;;;5.07;2.20;;;;;5.50;97284.00;;;;5030373;28;20216;-70
2023/10/16 02:52:38;;;;;;;6.47;2.67;;;;;5.30;97278.00;;;;5034202;28;20693;-70
2023/10/16 02:55:27;;;;;;;7.27;3.13;;;;;5.40;97274.00;;;;5031435;28;20455;-70
2023/10/16 02:58:16;;;;;;;5.80;2.50;;;;;5.30;97275.00;;;;5029702;28;20467;-70
2023/10/16 03:01:13;;;;;;;9.70;3.93;;;;;5.50;97277.00;;;;5032859;28;20438;-68
2023/10/16 03:04:05;;;;;;;6.80;2.73;;;;;5.50;97282.00;;;;5033540;28;20509;-70
2023/10/16 03:06:55;;;;;;;11.43;4.43;;;;;5.40;97283.00;;;;5031330;28;20458;-70
2023/10/16 03:09:44;;;;;;;5.77;2.50;;;;;4.90;97279.00;;;;5036927;28;20809;-70
2023/10/16 03:12:33;;;;;;;5.83;2.43;;;;;4.90;97285.00;;;;5036239;28;20432;-70
2023/10/16 03:15:27;;;;;;;8.10;3.27;;;;;4.80;97284.00;;;;5030777;28;20980;-70
2023/10/16 03:18:22;;;;;;;6.13;2.53;;;;;4.80;97279.00;;;;5029187;28;20489;-70
2023/10/16 03:21:26;;;;;;;5.17;2.27;;;;;5.10;97278.00;;;;5026275;28;20439;-70
2023/10/16 03:24:19;;;;;;;6.50;2.70;;;;;5.20;97291.00;;;;5029757;28;20440;-70
2023/10/16 03:27:09;;;;;;;6.47;2.67;;;;;5.20;97300.00;;;;5033244;28;20443;-70
2023/10/16 03:29:58;;;;;;;6.10;2.57;;;;;5.10;97304.00;;;;5031998;28;20434;-70
2023/10/16 03:32:48;;;;;;;5.67;2.33;;;;;4.90;97305.00;;;;5030037;28;20428;-71
2023/10/16 03:35:41;;;;;;;7.00;2.80;;;;;5.00;97303.00;;;;5032449;28;20475;-70
2023/10/16 03:38:36;;;;;;;12.90;4.83;;;;;5.10;97303.00;;;;5033033;28;20538;-70
2023/10/16 03:41:32;;;;;;;6.13;2.60;;;;;4.70;97315.00;;;;5032832;28;20431;-69
2023/10/16 03:44:24;;;;;;;7.27;3.00;;;;;4.50;97309.00;;;;5033119;28;20828;-70
2023/10/16 03:47:14;;;;;;;5.63;2.40;;;;;4.80;97320.00;;;;5033256;28;20440;-70
2023/10/16 03:50:03;;;;;;;9.10;3.60;;;;;4.80;97315.00;;;;5032778;28;20492;-70
2023/10/16 03:52:54;;;;;;;9.90;3.70;;;;;4.80;97321.00;;;;5035780;28;20431;-70
2023/10/16 03:55:44;;;;;;;8.17;3.27;;;;;4.40;97311.00;;;;5040105;28;20444;-70
2023/10/16 03:58:41;;;;;;;6.20;2.70;;;;;4.10;97314.00;;;;5037011;28;20463;-70
2023/10/16 04:01:30;;;;;;;6.73;2.73;;;;;3.90;97306.00;;;;5033646;28;21161;-70
2023/10/16 04:04:20;;;;;;;6.50;2.60;;;;;4.40;97306.00;;;;5033609;28;21247;-70
2023/10/16 04:07:13;;;;;;;6.37;2.67;;;;;4.70;97306.00;;;;5036729;28;20416;-70
2023/10/16 04:10:21;;;;;;;10.00;4.00;;;;;4.90;97314.00;;;;5036011;28;20427;-70
2023/10/16 04:13:11;;;;;;;7.37;2.90;;;;;4.60;97308.00;;;;5032229;28;20427;-70
2023/10/16 04:16:09;;;;;;;10.00;4.07;;;;;4.30;97313.00;;;;5034608;28;20470;-70
2023/10/16 04:19:28;;;;;;;25.60;9.27;;;;;4.20;97302.00;;;;5034021;28;20463;-70
2023/10/16 04:22:17;;;;;;;7.07;2.97;;;;;4.30;97300.00;;;;5032634;28;20424;-70
2023/10/16 04:25:17;;;;;;;9.40;3.93;;;;;4.50;97298.00;;;;5034820;28;20470;-70
2023/10/16 04:28:18;;;;;;;7.23;3.17;;;;;4.40;97295.00;;;;5036120;28;21128;-70
2023/10/16 04:31:31;;;;;;;5.10;2.17;;;;;3.60;97298.00;;;;5036066;28;20948;-70
2023/10/16 04:34:24;;;;;;;6.30;2.57;;;;;4.20;97309.00;;;;5031356;28;20573;-70
2023/10/16 04:37:36;;;;;;;11.00;4.20;;;;;4.70;97307.00;;;;5026449;28;20429;-69
2023/10/16 04:43:49;;;;;;;8.93;3.60;;;;;4.70;97332.00;;;;5028598;28;20819;-70
2023/10/16 04:49:45;;;;;;;6.53;2.67;;;;;4.80;97323.00;;;;5035346;28;20798;-70
2023/10/16 04:53:06;;;;;;;7.80;3.10;;;;;4.70;97328.00;;;;5034623;28;20433;-70
2023/10/16 04:58:59;;;;;;;8.67;3.43;;;;;4.40;97328.00;;;;5028542;28;20996;-70
2023/10/16 05:11:27;;;;;;;7.75;2.95;;;;;3.80;97336.00;;;;5027655;28;20447;-70
2023/10/16 05:14:20;;;;;;;8.00;3.07;;;;;4.20;97338.00;;;;5026794;28;20476;-70
2023/10/16 05:17:21;;;;;;;6.43;2.83;;;;;4.30;97329.00;;;;5031660;28;20715;-70
2023/10/16 06:16:18;;;;;;;5.60;2.33;;;;;3.40;97372.00;;;;5027160;28;20452;-69
2023/10/16 06:19:14;;;;;;;10.10;4.23;;;;;3.80;97385.00;;;;5031838;28;20819;-70
2023/10/16 06:22:07;;;;;;;14.43;5.47;;;;;4.00;97385.00;;;;5033559;28;20415;-69
2023/10/16 06:24:56;;;;;;;10.33;3.80;;;;;4.20;97385.00;;;;5026434;28;20454;-70
2023/10/16 06:27:46;;;;;;;11.30;4.17;;;;;4.30;97377.00;;;;5032790;28;20419;-71
2023/10/16 06:30:37;;;;;;;8.90;3.27;;;;;4.40;97383.00;;;;5032335;28;20494;-70
2023/10/16 06:33:28;;;;;;;7.20;2.83;;;;;4.00;97371.00;;;;5029510;28;20487;-71
2023/10/16 06:36:18;;;;;;;4.83;2.00;;;;;4.30;97385.00;;;;5028787;28;20505;-70
2023/10/16 06:39:22;;;;;;;11.33;4.47;;;;;4.40;97386.00;;;;5030867;28;20463;-70
2023/10/16 06:42:17;;;;;;;9.32;4.32;;;;;4.40;97390.00;;;;5029546;28;20396;-71
2023/10/16 06:45:07;;;;;;;17.23;10.27;;;;;4.30;97388.00;;;;5027451;28;20413;-72
2023/10/16 06:47:58;;;;;;;17.70;13.18;;;;;4.40;97391.00;;;;5030259;28;20427;-71
2023/10/16 06:50:53;;;;;;;13.75;12.45;;;;;4.40;97390.00;;;;5034542;28;20393;-71
2023/10/16 06:53:44;;;;;;;13.13;11.73;;;;;3.90;97381.00;;;;5029531;28;21039;-70
2023/10/16 06:56:35;;;;;;;17.35;15.75;;;;;4.10;97375.00;;;;5034619;28;20383;-71
2023/10/16 06:59:27;;;;;;;17.83;16.50;;;;;4.10;97378.00;;;;5030200;28;20411;-70
2023/10/16 07:02:16;;;;;;;17.90;16.30;;;;;4.00;97383.00;;;;5026744;28;20404;-70
2023/10/16 07:05:06;;;;;;;24.77;22.92;;;;;3.90;97374.00;;;;5032573;28;20723;-70
2023/10/16 07:07:59;;;;;;;25.35;22.92;;;;;4.00;97360.00;;;;5030353;28;20397;-70
2023/10/16 07:10:51;;;;;;;34.60;32.47;;;;;4.40;97377.00;;;;5028482;28;20399;-71
2023/10/16 07:13:40;;;;;;;40.77;38.37;;;;;4.50;97372.00;;;;5031821;28;20391;-71
2023/10/16 07:16:30;;;;;;;50.57;47.60;;;;;4.40;97371.00;;;;5029945;28;20383;-70
2023/10/16 07:19:22;;;;;;;60.65;57.15;;;;;4.60;97378.00;;;;5033338;28;20415;-70
2023/10/16 07:22:11;;;;;;;85.93;80.73;;;;;4.70;97376.00;;;;5036817;28;20399;-70
2023/10/16 07:25:23;;;;;;;97.03;90.95;;;;;4.90;97388.00;;;;5034917;28;20386;-70
2023/10/16 07:28:17;;;;;;;70.80;66.90;;;;;5.20;97372.00;;;;5032355;28;20746;-70
2023/10/16 07:31:10;;;;;;;73.30;68.93;;;;;5.70;97368.00;;;;5036502;28;20791;-71
2023/10/16 07:34:04;;;;;;;68.53;64.63;;;;;5.50;97374.00;;;;5034989;28;20817;-70
2023/10/16 07:36:55;;;;;;;59.67;56.47;;;;;5.80;97382.00;;;;5028932;28;20388;-70
2023/10/16 07:39:44;;;;;;;67.47;63.97;;;;;6.00;97371.00;;;;5036207;28;20435;-70
2023/10/16 07:42:35;;;;;;;58.37;55.37;;;;;6.10;97374.00;;;;5039198;28;20441;-70
2023/10/16 07:45:26;;;;;;;74.03;69.97;;;;;6.00;97367.00;;;;5032978;28;20403;-70
2023/10/16 07:48:20;;;;;;;60.58;57.47;;;;;6.10;97370.00;;;;5035688;28;20399;-70
2023/10/16 07:51:10;;;;;;;70.35;66.05;;;;;6.50;97373.00;;;;5028002;28;20463;-70
2023/10/16 07:54:00;;;;;;;77.68;73.75;;;;;7.00;97381.00;;;;5034500;28;20386;-70
2023/10/16 07:56:50;;;;;;;83.05;79.07;;;;;7.30;97379.00;;;;5039759;28;20399;-70
2023/10/16 07:59:41;;;;;;;8.57;4.03;;;;;7.80;97377.00;;;;5035799;28;20221;-71
2023/10/16 08:02:32;;;;;;;10.33;3.97;;;;;8.10;97378.00;;;;5037887;28;20691;-70
2023/10/16 08:05:21;;;;;;;10.57;4.13;;;;;8.50;97370.00;;;;5029859;28;20225;-71
2023/10/16 08:08:12;;;;;;;9.20;3.77;;;;;8.60;97377.00;;;;5036242;28;20209;-71
2023/10/16 08:11:06;;;;;;;13.30;5.00;;;;;8.70;97368.00;;;;5032192;28;20200;-71
2023/10/16 08:13:55;;;;;;;11.53;4.43;;;;;8.90;97371.00;;;;5027074;28;20278;-71
2023/10/16 08:16:44;;;;;;;8.47;3.80;;;;;9.00;97371.00;;;;5033770;28;20796;-71
2023/10/16 08:19:35;;;;;;;6.60;3.20;;;;;9.00;97373.00;;;;5032855;28;20225;-71
2023/10/16 08:22:25;;;;;;;8.03;4.30;;;;;9.70;97367.00;;;;5034644;28;20786;-71
2023/10/16 08:25:30;;;;;;;16.30;6.47;;;;;9.80;97363.00;;;;5050434;22;20244;-65
2023/10/16 08:28:20;;;;;;;8.63;4.77;;;;;9.90;97364.00;;;;5040309;28;20197;-66
2023/10/16 08:31:22;;;;;;;14.00;7.03;;;;;10.20;97366.00;;;;5047527;28;20207;-66
2023/10/16 08:34:13;;;;;;;8.30;4.33;;;;;10.90;97376.00;;;;5035300;28;20726;-66
2023/10/16 08:37:04;;;;;;;15.43;8.47;;;;;11.20;97372.00;;;;5026604;28;20228;-66
2023/10/16 08:39:53;;;;;;;7.23;4.53;;;;;11.50;97374.00;;;;5021351;28;20658;-66
2023/10/16 08:42:43;;;;;;;9.20;5.83;;;;;11.60;97379.00;;;;5029544;28;20268;-66
2023/10/16 08:45:33;;;;;;;6.47;4.90;;;;;11.80;97375.00;;;;5024973;28;20221;-65
2023/10/16 08:48:24;;;;;;;9.90;8.40;;;;;12.00;97371.00;;;;5027074;28;20217;-66
2023/10/16 08:51:16;;;;;;;10.77;9.67;;;;;12.30;97373.00;;;;5025952;28;20197;-65
2023/10/16 08:54:35;;;;;;;16.90;11.33;;;;;12.50;97374.00;;;;5023935;28;20201;-66
2023/10/16 08:57:19;;;;;;;11.53;10.13;;;;;12.70;97366.00;;;;5024835;28;20217;-65
2023/10/16 09:00:10;;;;;;;20.50;14.63;;;;;12.90;97374.00;;;;5024417;28;20236;-66
2023/10/16 09:03:01;;;;;;;13.23;12.03;;;;;13.20;97361.00;;;;5027615;28;20202;-65
2023/10/16 09:05:51;;;;;;;15.57;10.77;;;;;13.40;97363.00;;;;5025798;28;20232;-65
2023/10/16 09:08:41;;;;;;;10.07;7.63;;;;;13.50;97354.00;;;;5019534;28;20198;-65
2023/10/16 09:11:31;;;;;;;7.90;5.07;;;;;13.80;97348.00;;;;5026336;28;20202;-66
2023/10/16 09:14:21;;;;;;;9.97;5.93;;;;;13.70;97350.00;;;;5024655;28;20220;-66
2023/10/16 09:17:15;;;;;;;7.67;6.00;;;;;13.60;97358.00;;;;5023611;28;20228;-65
2023/10/16 09:20:12;;;;;;;15.30;10.80;;;;;14.00;97353.00;;;;5022614;28;20225;-66
2023/10/16 09:23:03;;;;;;;13.33;10.27;;;;;14.10;97346.00;;;;5024859;28;20228;-65
2023/10/16 09:25:56;;;;;;;13.53;10.00;;;;;14.40;97336.00;;;;5022448;28;20233;-65
2023/10/16 09:28:48;;;;;;;10.43;9.40;;;;;13.60;97326.00;;;;5019738;28;20224;-66
2023/10/16 09:31:37;;;;;;;10.27;8.90;;;;;14.70;97337.00;;;;5027396;28;20296;-66
2023/10/16 09:34:28;;;;;;;8.90;8.10;;;;;15.10;97334.00;;;;5021434;28;20638;-66
2023/10/16 09:37:20;;;;;;;7.67;4.80;;;;;15.20;97329.00;;;;5023275;28;20228;-65
2023/10/16 09:40:20;;;;;;;14.53;7.90;;;;;15.20;97332.00;;;;5023613;28;20225;-66
2023/10/16 09:43:24;;;;;;;8.80;5.37;;;;;15.50;97338.00;;;;5022890;28;20197;-66
2023/10/16 09:46:48;;;;;;;6.53;3.97;;;;;15.60;97328.00;;;;5020599;28;20235;-66
2023/10/16 09:49:38;;;;;;;7.43;3.83;;;;;14.70;97334.00;;;;5028696;28;20205;-66
2023/10/16 09:52:30;;;;;;;8.27;4.23;;;;;15.10;97333.00;;;;5023991;28;20209;-66
2023/10/16 09:55:22;;;;;;;10.33;5.13;;;;;15.40;97336.00;;;;5024365;28;20212;-66
2023/10/16 09:58:11;;;;;;;12.20;6.00;;;;;15.70;97326.00;;;;5019260;28;20212;-66
2023/10/16 10:01:06;;;;;;;12.30;5.87;;;;;16.00;97320.00;;;;5021727;28;20225;-66
2023/10/16 10:03:57;;;;;;;7.17;4.13;;;;;16.10;97320.00;;;;5026098;28;20259;-66
2023/10/16 10:06:48;;;;;;;8.33;4.33;;;;;16.40;97313.00;;;;5017985;28;20217;-65
2023/10/16 10:09:42;;;;;;;5.07;3.27;;;;;16.80;97307.00;;;;5026090;28;20205;-66
2023/10/16 10:12:41;;;;;;;8.10;5.83;;;;;16.60;97313.00;;;;5018955;28;20209;-66
2023/10/16 10:15:34;;;;;;;10.63;9.47;;;;;17.10;97303.00;;;;5027929;28;20228;-65
2023/10/16 10:18:32;;;;;;;12.37;11.57;;;;;17.50;97307.00;;;;5019033;28;20219;-66
2023/10/16 10:21:28;;;;;;;10.03;9.27;;;14.10;92.90;18.00;97310.00;;;;5027646;28;20275;-66
2023/10/16 10:24:17;;;;;;;8.43;7.73;;;14.40;93.70;18.10;97297.00;;;;5023202;28;20891;-66
2023/10/16 10:27:11;;;;;;;12.60;10.33;;;14.80;91.80;17.80;97292.00;;;;5023574;28;20233;-66
2023/10/16 10:30:03;;;;;;;12.80;10.70;;;15.10;88.60;18.30;97291.00;;;;5025052;28;20201;-66
2023/10/16 10:32:55;;;;;;;10.33;9.60;;;15.30;89.20;19.10;97284.00;;;;5023698;28;20913;-66
2023/10/16 10:35:47;;;;;;;11.93;10.77;;;15.60;90.00;19.40;97287.00;;;;5018529;28;20222;-67
2023/10/16 10:38:37;;;;;;;16.50;15.27;;;15.90;87.80;20.30;97285.00;;;;5022070;28;20205;-67
2023/10/16 10:41:26;;;;;;;28.63;27.07;;;16.50;88.40;20.60;97280.00;;;;5027749;28;20217;-66
2023/10/16 10:44:18;;;;;;;13.43;12.40;;;16.90;86.80;20.30;97279.00;;;;5020039;28;20175;-66
2023/10/16 10:47:21;;;;;;;16.87;15.60;;;17.30;82.40;21.20;97267.00;;;;5018816;28;20220;-67
2023/10/16 10:50:14;;;;;;;25.37;23.90;;;17.60;83.70;21.50;97265.00;;;;5016613;28;20224;-66
2023/10/16 10:53:13;;;;;;;36.97;34.70;;;17.90;83.10;21.80;97256.00;;;;5024825;28;20212;-66
2023/10/16 10:56:07;;;;;;;37.20;35.00;;;18.30;80.60;21.90;97247.00;;;;5017690;28;20220;-67
2023/10/16 10:58:56;;;;;;;25.27;23.80;;;;;20.70;97239.00;;;;5024484;28;20581;-67
2023/10/16 11:01:51;;;;;;;27.17;25.67;;;;;20.80;97237.00;;;;5015530;28;20225;-67
2023/10/16 11:04:42;;;;;;;26.20;24.53;;;;;22.00;97241.00;;;;5023230;28;20202;-66
2023/10/16 11:07:39;;;;;;;31.90;30.20;;;;;21.90;97236.00;;;;5016913;28;20631;-67
2023/10/16 11:10:29;;;;;;;41.67;39.57;;;;;22.60;97230.00;;;;5013656;28;20202;-67
2023/10/16 11:13:21;;;;;;;53.63;51.23;;;;;22.70;97229.00;;;;5022007;28;20209;-67
2023/10/16 11:16:10;;;;;;;79.87;76.07;;;;;22.80;97233.00;;;;5018960;28;20615;-67
2023/10/16 11:19:00;;;;;;;79.43;75.93;;;;;22.40;97228.00;;;;5023199;28;20340;-67
2023/10/16 11:21:50;;;;;;;64.83;62.13;;;;;23.30;97229.00;;;;5022064;28;20225;-66
2023/10/16 11:24:42;;;;;;;71.40;68.10;;;;;22.90;97231.00;;;;5021421;28;20255;-67
2023/10/16 11:27:31;;;;;;;84.27;80.70;;;;;23.30;97225.00;;;;5022974;28;20713;-67
2023/10/16 11:30:23;;;;;;;100.17;95.93;;;;;23.80;97225.00;;;;5019323;28;20220;-67
2023/10/16 11:33:12;;;;;;;100.47;95.93;;;;;23.30;97220.00;;;;5018677;28;20186;-67
2023/10/16 11:36:04;;;;;;;95.90;91.50;;;;;22.90;97224.00;;;;5019482;28;20615;-67
2023/10/16 11:38:53;;;;;;;94.43;90.77;;;;;23.10;97208.00;;;;5024021;28;20213;-68
2023/10/16 11:41:43;;;;;;;103.67;99.40;;;;;23.20;97219.00;;;;5025125;28;20225;-67
2023/10/16 11:44:33;;;;;;;92.97;89.03;;;;;22.90;97211.00;;;;5023788;28;20229;-68
2023/10/16 11:47:36;;;;;;;113.83;109.40;;;;;23.10;97213.00;;;;5023146;28;20230;-68
2023/10/16 11:50:38;;;;;;;129.40;124.23;;;;;23.70;97200.00;;;;5019238;28;20221;-67
2023/10/16 11:53:31;;;;;;;152.77;146.97;;;;;23.60;97192.00;;;;5024300;28;20292;-67
2023/10/16 11:56:19;;;;;;;167.50;161.13;;;;;23.20;97193.00;;;;5021942;28;20234;-67
2023/10/16 11:59:12;;;;;;;155.10;148.70;;;;;23.50;97193.00;;;;5014531;28;20221;-68
2023/10/16 12:02:10;;;;;;;162.30;155.60;;;;;23.80;97192.00;;;;5020138;28;20218;-67
2023/10/16 12:05:01;;;;;;;199.27;191.27;;;;;23.20;97191.00;;;;5027374;28;20235;-67
2023/10/16 12:07:52;;;;;;;191.63;184.00;;;;;23.00;97181.00;;;;5026276;28;20200;-67
2023/10/16 12:10:44;;;;;;;212.97;204.73;;;;;24.40;97187.00;;;;5024909;28;20203;-67
2023/10/16 12:13:33;;;;;;;197.30;189.90;;;;;24.00;97179.00;;;;5026618;28;20205;-67
2023/10/16 12:16:24;;;;;;;245.93;236.63;;;;;25.30;97183.00;;;;5018249;28;20235;-68
2023/10/16 12:19:24;;;;;;;327.53;314.50;;;;;24.80;97172.00;;;;5026459;28;20195;-68
2023/10/16 12:22:19;;;;;;;343.33;329.20;;;;;24.80;97166.00;;;;5028214;28;20230;-67
2023/10/16 12:25:09;;;;;;;369.10;353.97;;;;;25.30;97158.00;;;;5025010;28;20213;-67
2023/10/16 12:27:58;;;;;;;405.47;388.17;;;;;25.90;97165.00;;;;5022184;28;20222;-67
2023/10/16 12:30:48;;;;;;;448.37;428.27;;;;;25.80;97176.00;;;;5022164;28;20565;-68
2023/10/16 12:33:37;;;;;;;482.63;460.23;;;;;26.00;97166.00;;;;5026277;28;20210;-67
2023/10/16 12:36:26;;;;;;;503.90;479.90;;;;;26.50;97162.00;;;;5022225;28;20222;-68
2023/10/16 12:39:24;;;;;;;538.33;512.13;;;;;26.70;97164.00;;;;5022726;28;20197;-67
2023/10/16 12:42:13;;;;;;;571.83;542.38;;;;;27.20;97153.00;;;;5028442;28;20208;-68
2023/10/16 12:45:02;;;;;;;566.90;537.95;;;;;26.30;97147.00;;;;5021911;28;20212;-67
2023/10/16 12:47:52;;;;;;;543.42;516.88;;;;;24.90;97150.00;;;;5021871;28;20199;-68
2023/10/16 12:50:42;;;;;;;522.55;498.08;;;;;26.10;97158.00;;;;5023049;28;20257;-68
2023/10/16 12:53:37;;;;;;;397.63;381.67;;;;;25.50;97148.00;;;;5021084;28;20292;-67
2023/10/16 12:56:31;;;;;;;336.08;323.63;;;;;25.70;97152.00;;;;5022423;28;20244;-68
2023/10/16 12:59:20;;;;;;;316.23;304.70;;;;;26.20;97152.00;;;;5023744;28;20966;-67
2023/10/16 13:02:10;;;;;;;333.75;320.65;;;;;27.00;97146.00;;;;5021872;28;20210;-67
2023/10/16 13:05:01;;;;;;;359.25;345.17;;;;;26.20;97147.00;;;;5023689;28;20216;-67
2023/10/16 13:07:50;;;;;;;379.83;365.00;;;;;26.90;97137.00;;;;5025105;28;20254;-67
2023/10/16 13:10:41;;;;;;;444.95;426.23;;;;;26.80;97146.00;;;;5024743;28;20205;-67
2023/10/16 13:13:31;;;;;;;434.27;416.30;;;;;26.80;97159.00;;;;5026441;28;20230;-65
2023/10/16 13:16:25;;;;;;;421.63;404.77;;;;;26.30;97156.00;;;;5024135;28;20236;-65
2023/10/16 13:19:14;;;;;;;437.40;419.00;;;;;27.30;97164.00;;;;5022539;28;20209;-65
2023/10/16 13:22:10;;;;;;;435.08;417.13;;;;;26.90;97159.00;;;;5022197;28;20200;-65
2023/10/16 13:24:59;;;;;;;463.80;444.25;;;;;26.80;97153.00;;;;5022767;28;20325;-65
2023/10/16 13:27:48;;;;;;;458.60;438.75;;;;;27.00;97152.00;;;;5029200;28;20263;-65
2023/10/16 13:30:40;;;;;;;429.77;412.60;;;;;27.20;97139.00;;;;5029055;28;20212;-65
2023/10/16 13:33:32;;;;;;;402.63;386.17;;;;;26.00;97137.00;;;;5026781;28;20241;-64
2023/10/16 13:36:21;;;;;;;414.05;397.55;;;;;26.80;97126.00;;;;5022338;28;20732;-66
2023/10/16 13:39:10;;;;;;;473.98;453.13;;;;;26.60;97124.00;;;;5019250;28;20251;-66
2023/10/16 13:42:00;;;;;;;527.58;503.13;;;;;25.20;97130.00;;;;5017439;28;20210;-67
2023/10/16 13:44:49;;;;;;;672.55;624.15;;;;;26.50;97132.00;;;;5022197;28;20223;-67
2023/10/16 13:47:42;;;;;;;663.80;619.67;;;;;26.30;97127.00;;;;5029340;28;20207;-67
2023/10/16 13:50:32;;;;;;;574.95;544.35;;;;;22.70;97132.00;;;;5027730;28;20218;-66
2023/10/16 13:53:21;;;;;;;346.90;333.73;;;;;23.60;97141.00;;;;5023230;28;20270;-66
2023/10/16 13:56:11;;;;;;;269.67;259.85;;;;;23.60;97126.00;;;;5018264;28;20233;-67
2023/10/16 13:59:02;;;;;;;218.70;210.50;;;;;22.90;97141.00;;;;5025819;28;20217;-66
2023/10/16 14:01:51;;;;;;;176.83;170.50;;;;;22.90;97140.00;;;;5021287;28;20201;-66
2023/10/16 14:04:45;;;;;;;143.80;138.17;;;;;23.80;97142.00;;;;5024876;28;20596;-65
2023/10/16 14:07:34;;;;;;;107.23;102.93;;;;;20.90;97126.00;;;;5025249;28;20206;-67
2023/10/16 14:10:23;;;;;;;67.40;64.57;;;;;17.90;97121.00;;;;5025261;28;20225;-65
2023/10/16 14:13:18;;;;;;;33.50;31.37;;;;;20.40;97129.00;;;;5021479;28;20232;-66
2023/10/16 14:16:11;;;;;;;34.17;31.80;;;;;22.50;97118.00;;;;5026119;28;20236;-67
2023/10/16 14:19:06;;;;;;;38.57;36.47;;;;;23.10;97139.00;;;;5024489;28;20208;-65
2023/10/16 14:21:57;;;;;;;26.23;24.80;;;;;20.20;97154.00;;;;5024647;28;20216;-66
2023/10/16 14:24:46;;;;;;;27.83;25.83;;;;;18.60;97102.00;;;;5021522;28;20270;-65
2023/10/16 14:27:39;;;;;;;18.90;17.50;;;;;18.40;97096.00;;;;5012975;28;20218;-65
2023/10/16 14:30:28;;;;;;;12.37;10.93;;;;;20.90;97096.00;;;;5005482;28;20210;-65
2023/10/16 14:33:21;;;;;;;12.77;11.83;;;;;22.50;97102.00;;;;5005097;28;20234;-65
2023/10/16 14:36:15;;;;;;;23.77;22.07;;;;;22.40;97165.00;;;;5005903;28;20229;-65
2023/10/16 14:39:08;;;;;;;14.40;12.17;;;;;20.90;97130.00;;;;5002978;28;20583;-66
2023/10/16 14:42:01;;;;;;;16.10;14.83;;;;;22.40;97101.00;;;;5012736;28;20208;-66
2023/10/16 14:44:50;;;;;;;16.83;15.67;;;;;22.90;97102.00;;;;5012274;28;20228;-65
2023/10/16 14:47:40;;;;;;;18.00;16.40;;;;;23.30;97098.00;;;;5013446;28;20202;-65
2023/10/16 14:50:32;;;;;;;30.50;28.60;;;;;23.00;97088.00;;;;5000164;28;20210;-65
2023/10/16 14:53:23;;;;;;;34.60;32.70;;;;;23.50;97105.00;;;;5008288;28;20626;-64
2023/10/16 14:56:18;;;;;;;35.20;33.03;;;;;23.10;97094.00;;;;5010266;28;20226;-65
2023/10/16 14:59:11;;;;;;;41.93;39.73;;;;;23.60;97098.00;;;;5006861;28;20207;-65
2023/10/16 15:02:03;;;;;;;61.60;58.50;;;;;24.30;97097.00;;;;5005049;28;20203;-65
2023/10/16 15:04:52;;;;;;;54.73;52.10;;;;;23.40;97114.00;;;;5004494;28;20212;-65
2023/10/16 15:07:41;;;;;;;47.07;44.17;;;;;21.90;97141.00;;;;5008288;28;20694;-65
2023/10/16 15:10:32;;;;;;;36.27;34.00;;;;;19.20;97134.00;;;;5001924;28;20683;-65
2023/10/16 15:13:30;;;;;;;30.27;28.67;;;;;18.30;97132.00;;;;5013449;28;20428;-65
2023/10/16 15:16:21;;;;;;;22.93;21.27;;;;;15.70;97125.00;;;;5004368;28;20230;-64
2023/10/16 15:19:10;;;;;;;42.10;39.70;;;;;15.30;97127.00;;;;5003743;28;20599;-64
2023/10/16 15:21:59;;;;;;;103.73;98.93;;;;;13.40;97124.00;;;;5003137;28;20216;-65
2023/10/16 15:24:49;;;;;;;76.27;72.43;;;;;13.00;97125.00;;;;5004013;28;20585;-65